createdAt,value
2019-04-29T00:03:54.626Z,89.49
2019-04-29T00:08:54.568Z,88.78
2019-04-29T00:13:53.572Z,90.03
2019-04-29T00:18:53.665Z,89.10
2019-04-29T00:24:03.530Z,88.92
2019-04-29T00:28:53.997Z,89.01
2019-04-29T00:33:54.539Z,89.70
2019-04-29T00:38:54.554Z,89.37
2019-04-29T00:43:54.599Z,89.27
2019-04-29T00:48:54.594Z,89.39
2019-04-29T00:53:53.558Z,89.34
2019-04-29T01:03:52.543Z,88.87
2019-04-29T01:08:53.595Z,89.59
2019-04-29T01:13:53.536Z,89.32
2019-04-29T01:18:53.603Z,89.46
2019-04-29T01:23:53.545Z,87.96
2019-04-29T01:28:53.609Z,87.75
2019-04-29T01:33:52.840Z,88.74
2019-04-29T01:38:52.564Z,87.84
2019-04-29T01:43:52.634Z,89.52
2019-04-29T01:48:51.732Z,87.73
2019-04-29T01:53:50.666Z,87.88
2019-04-29T01:58:49.889Z,88.01
2019-04-29T02:03:50.765Z,85.98
2019-04-29T02:08:49.800Z,88.94
2019-04-29T02:13:49.643Z,90.59
2019-04-29T02:18:49.567Z,92.15
2019-04-29T02:23:51.037Z,92.18
2019-04-29T02:28:50.557Z,91.95
2019-04-29T02:33:50.693Z,90.80
2019-04-29T02:38:50.680Z,90.86
2019-04-29T02:43:50.912Z,91.41
2019-04-29T02:48:49.943Z,91.43
2019-04-29T02:53:48.777Z,90.19
2019-04-29T02:58:47.946Z,89.41
2019-04-29T03:03:46.783Z,89.41
2019-04-29T03:08:46.588Z,89.19
2019-04-29T03:13:45.705Z,90.59
2019-04-29T03:18:45.626Z,90.52
2019-04-29T03:23:44.600Z,90.71
2019-04-29T03:28:44.723Z,91.14
2019-04-29T03:33:43.597Z,91.25
2019-04-29T03:38:43.002Z,91.33
2019-04-29T03:43:43.638Z,91.89
2019-04-29T03:48:42.759Z,91.65
2019-04-29T03:53:42.595Z,90.60
2019-04-29T03:58:42.673Z,90.41
2019-04-29T04:03:43.795Z,88.30
2019-04-29T04:08:43.608Z,88.80
2019-04-29T04:13:43.731Z,90.10
2019-04-29T04:18:42.635Z,90.95
2019-04-29T04:23:41.815Z,89.85
2019-04-29T04:28:41.639Z,89.35
2019-04-29T04:33:42.697Z,89.91
2019-04-29T04:38:41.641Z,89.15
2019-04-29T04:43:41.727Z,91.49
2019-04-29T04:48:41.671Z,92.01
2019-04-29T04:53:41.714Z,92.77
2019-04-29T04:58:40.640Z,93.02
2019-04-29T05:03:40.735Z,92.75
2019-04-29T05:08:40.856Z,92.12
2019-04-29T05:13:40.033Z,91.95
2019-04-29T05:18:39.749Z,92.23
2019-04-29T05:23:41.690Z,92.41
2019-04-29T05:28:41.877Z,92.46
2019-04-29T05:33:40.858Z,92.59
2019-04-29T05:38:40.634Z,92.81
2019-04-29T05:43:40.649Z,92.66
2019-04-29T05:48:39.896Z,92.83
2019-04-29T05:53:39.662Z,92.82
2019-04-29T05:58:39.817Z,93.07
2019-04-29T06:03:39.857Z,92.78
2019-04-29T06:08:39.501Z,92.89
2019-04-29T06:13:38.717Z,93.00
2019-04-29T06:18:40.917Z,92.25
2019-04-29T06:23:37.664Z,91.41
2019-04-29T06:28:37.677Z,90.92
2019-04-29T06:33:37.718Z,90.49
2019-04-29T06:38:36.751Z,90.54
2019-04-29T06:43:37.661Z,89.07
2019-04-29T06:48:37.712Z,88.96
2019-04-29T06:53:36.775Z,88.34
2019-04-29T06:58:38.213Z,87.68
2019-04-29T07:03:35.687Z,87.52
2019-04-29T07:08:34.705Z,86.27
2019-04-29T07:13:34.727Z,87.44
2019-04-29T07:18:33.923Z,85.62
2019-04-29T07:23:33.741Z,83.64
2019-04-29T07:28:33.656Z,84.44
2019-04-29T07:33:32.668Z,83.30
2019-04-29T07:43:32.730Z,81.98
2019-04-29T07:48:36.700Z,81.74
2019-04-29T07:53:37.392Z,81.86
2019-04-29T08:03:33.915Z,81.26
2019-04-29T08:08:33.717Z,79.52
2019-04-29T08:13:33.704Z,79.99
2019-04-29T08:18:32.725Z,77.59
2019-04-29T08:23:40.888Z,76.90
2019-04-29T08:28:31.765Z,76.04
2019-04-29T08:33:31.754Z,73.00
2019-04-29T08:38:31.679Z,72.70
2019-04-29T08:43:31.780Z,70.86
2019-04-29T08:48:32.800Z,67.18
2019-04-29T08:53:32.718Z,67.54
2019-04-29T08:58:33.686Z,64.29
2019-04-29T09:08:34.605Z,64.13
2019-04-29T09:13:32.730Z,64.03
2019-04-29T09:18:32.766Z,60.93
2019-04-29T09:23:32.671Z,63.47
2019-04-29T09:28:31.904Z,65.08
2019-04-29T09:33:30.744Z,61.46
2019-04-29T09:38:32.595Z,62.78
2019-04-29T09:43:32.877Z,63.00
2019-04-29T09:48:30.665Z,63.16
2019-04-29T09:53:29.744Z,59.42
2019-04-29T09:58:28.765Z,59.44
2019-04-29T10:03:28.762Z,59.07
2019-04-29T10:08:27.970Z,58.95
2019-04-29T10:13:27.798Z,59.65
2019-04-29T10:18:29.733Z,61.12
2019-04-29T10:23:27.714Z,59.56
2019-04-29T10:28:27.811Z,57.54
2019-04-29T10:33:28.698Z,59.78
2019-04-29T10:38:28.764Z,56.62
2019-04-29T10:43:28.910Z,58.61
2019-04-29T10:48:29.770Z,58.89
2019-04-29T10:53:29.676Z,58.41
2019-04-29T10:58:33.032Z,60.80
2019-04-29T11:03:28.952Z,58.15
2019-04-29T11:08:28.697Z,58.72
2019-04-29T11:13:28.853Z,58.70
2019-04-29T11:18:27.939Z,57.56
2019-04-29T11:23:27.990Z,57.38
2019-04-29T11:28:27.935Z,56.97
2019-04-29T11:33:28.740Z,57.78
2019-04-29T11:38:28.510Z,57.18
2019-04-29T11:43:27.003Z,55.52
2019-04-29T11:48:27.785Z,53.06
2019-04-29T11:53:26.762Z,52.16
2019-04-29T11:58:25.789Z,51.56
2019-04-29T12:03:26.245Z,55.75
2019-04-29T12:08:25.811Z,55.67
2019-04-29T12:13:28.455Z,54.94
2019-04-29T12:18:25.739Z,53.77
2019-04-29T12:23:25.888Z,52.84
2019-04-29T12:28:26.991Z,55.68
2019-04-29T12:33:26.726Z,51.87
2019-04-29T12:38:39.391Z,54.51
2019-04-29T12:43:26.815Z,53.63
2019-04-29T12:48:27.855Z,54.00
2019-04-29T12:53:26.861Z,53.11
2019-04-29T12:58:26.770Z,53.32
2019-04-29T13:03:25.669Z,52.79
2019-04-29T13:08:24.687Z,51.95
2019-04-29T13:13:24.697Z,49.90
2019-04-29T13:18:24.687Z,53.03
2019-04-29T13:28:30.183Z,51.70
2019-04-29T13:33:24.091Z,49.90
2019-04-29T13:38:23.680Z,51.97
2019-04-29T13:48:22.716Z,51.82
2019-04-29T13:53:22.907Z,53.01
2019-04-29T13:58:27.178Z,52.05
2019-04-29T14:03:23.950Z,54.96
2019-04-29T14:08:24.170Z,53.62
2019-04-29T14:13:23.785Z,54.71
2019-04-29T14:18:23.060Z,52.84
2019-04-29T14:28:22.115Z,51.29
2019-04-29T14:33:24.315Z,51.24
2019-04-29T14:38:24.280Z,51.89
2019-04-29T14:43:28.459Z,51.46
2019-04-29T14:48:20.666Z,53.76
2019-04-29T14:53:24.137Z,53.38
2019-04-29T14:58:19.671Z,52.03
2019-04-29T15:03:18.699Z,50.10
2019-04-29T15:13:21.353Z,52.90
2019-04-29T15:18:23.864Z,52.87
2019-04-29T15:23:28.025Z,52.75
2019-04-29T15:28:18.947Z,55.85
2019-04-29T15:33:15.694Z,54.20
2019-04-29T15:38:14.727Z,55.26
2019-04-29T15:43:17.818Z,54.67
2019-04-29T15:48:14.700Z,55.22
2019-04-29T15:53:14.706Z,55.54
2019-04-29T15:58:15.716Z,57.36
2019-04-29T16:03:17.750Z,58.10
2019-04-29T16:08:16.621Z,56.57
2019-04-29T16:13:15.985Z,57.83
2019-04-29T16:18:15.090Z,58.45
2019-04-29T16:23:14.663Z,59.38
2019-04-29T16:28:15.712Z,59.77
2019-04-29T16:33:15.596Z,60.53
2019-04-29T16:38:14.305Z,62.78
2019-04-29T16:43:13.639Z,64.16
2019-04-29T16:48:13.659Z,65.92
2019-04-29T16:53:13.762Z,64.89
2019-04-29T16:58:18.042Z,65.50
2019-04-29T17:03:12.967Z,66.44
2019-04-29T17:08:15.183Z,67.15
2019-04-29T17:13:16.640Z,66.53
2019-04-29T17:18:10.710Z,66.62
2019-04-29T17:23:09.858Z,66.96
2019-04-29T17:28:12.071Z,66.24
2019-04-29T17:33:08.966Z,66.74
2019-04-29T17:38:08.602Z,67.30
2019-04-29T17:43:07.763Z,67.30
2019-04-29T17:48:09.073Z,67.33
2019-04-29T17:53:07.615Z,69.70
2019-04-29T17:58:06.749Z,69.26
2019-04-29T18:03:05.730Z,69.48
2019-04-29T18:08:06.688Z,69.70
2019-04-29T18:13:06.717Z,69.29
2019-04-29T18:18:08.755Z,69.31
2019-04-29T18:23:05.618Z,69.80
2019-04-29T18:28:06.736Z,69.77
2019-04-29T18:33:06.048Z,71.06
2019-04-29T18:38:07.439Z,71.43
2019-04-29T18:43:05.053Z,70.97
2019-04-29T18:48:03.791Z,70.48
2019-04-29T18:53:02.608Z,71.59
2019-04-29T18:58:01.903Z,72.70
2019-04-29T19:03:01.650Z,74.10
2019-04-29T19:08:11.263Z,73.26
2019-04-29T19:13:00.469Z,74.06
2019-04-29T19:18:01.987Z,74.73
2019-04-29T19:23:07.823Z,76.90
2019-04-29T19:28:11.771Z,76.95
2019-04-29T19:33:01.779Z,77.27
2019-04-29T19:38:01.636Z,76.59
2019-04-29T19:53:04.970Z,77.29
2019-04-29T19:58:02.050Z,77.59
2019-04-29T20:03:01.332Z,77.73
2019-04-29T20:08:01.164Z,76.73
2019-04-29T20:13:00.851Z,76.66
2019-04-29T20:18:00.976Z,76.33
2019-04-29T20:23:01.939Z,75.55
2019-04-29T20:28:05.709Z,75.72
2019-04-29T20:33:01.189Z,75.94
2019-04-29T20:38:00.407Z,74.43
2019-04-29T20:43:01.021Z,75.54
2019-04-29T20:48:00.126Z,74.60
2019-04-29T20:53:02.526Z,75.20
2019-04-29T21:03:04.095Z,74.70
2019-04-29T21:08:03.313Z,73.84
2019-04-29T21:13:00.754Z,75.31
2019-04-29T21:18:00.621Z,74.64
2019-04-29T21:23:01.074Z,74.92
2019-04-29T21:28:02.232Z,75.50
2019-04-29T21:33:00.670Z,75.31
2019-04-29T21:47:59.824Z,76.56
2019-04-29T21:53:02.080Z,77.61
2019-04-29T21:58:00.100Z,77.04
2019-04-29T22:02:59.079Z,77.54
2019-04-29T22:07:57.676Z,77.32
2019-04-29T22:13:01.787Z,77.42
2019-04-29T22:18:01.286Z,77.89
2019-04-29T22:22:57.667Z,77.77
2019-04-29T22:27:58.005Z,77.96
2019-04-29T22:32:58.716Z,78.74
2019-04-29T22:37:56.739Z,78.22
2019-04-29T22:43:04.659Z,78.57
2019-04-29T22:48:11.447Z,79.05
2019-04-29T22:52:56.641Z,78.75
2019-04-29T22:57:55.434Z,79.26
2019-04-29T23:02:57.809Z,79.52
2019-04-29T23:07:57.019Z,79.93
2019-04-29T23:12:57.436Z,80.50
2019-04-29T23:17:55.626Z,80.95
2019-04-29T23:22:56.814Z,80.90
2019-04-29T23:27:54.652Z,81.36
2019-04-29T23:32:56.172Z,81.19
2019-04-29T23:37:57.424Z,80.74
2019-04-29T23:42:55.445Z,80.50
2019-04-29T23:47:55.419Z,80.75
2019-04-29T23:52:55.552Z,80.89
2019-04-29T23:57:55.555Z,81.36
